Terminal Aerodrome Forecast
Issued by NWS

Home | Current Version | Previous Version | Graphics & Text | Print | Product List | Glossary On
Versions: 1 2 3 4 5 6 7 8 9 10 11 12 13 14 15 16 17
000
FTUS43 KGRB 241600 AAC
TAFAUW
TAF AMD
KAUW 241638Z 2417/2512 35006KT 4SM -SN BKN012
      TEMPO 2417/2418 2SM -SN BR OVC008
     FM241800 34008KT 5SM -SN SCT008 OVC015
     FM250100 31006KT P6SM BKN015 OVC022
     FM250600 27008KT P6SM OVC024=

USA.gov is the U.S. government's official web portal to all federal, state and local government web resources and services.